Time;durP1;ratioP1;P1;durP2;ratioP2;P2;SDS_P1;SDS_P2;PMS_P1;PMS_P2;Temp;Humidity;BMP_temperature;BMP_pressure;BME280_temperature;BME280_humidity;BME280_pressure;Samples;Min_cycle;Max_cycle;Signal;HPM_P1;HPM_P2
2021/01/10 00:00:19;;;;;;;75.75;26.95;;;;;;;1.11;100.00;101972.31;4967754;28;20117;-71
2021/01/10 00:02:44;;;;;;;74.88;27.05;;;;;;;1.16;100.00;101970.53;4959281;28;20466;-71
2021/01/10 00:05:13;;;;;;;73.97;27.90;;;;;;;1.25;100.00;101973.09;4972530;28;20133;-70
2021/01/10 00:07:38;;;;;;;71.00;26.77;;;;;;;1.32;100.00;101972.19;4969446;28;20034;-71
2021/01/10 00:10:08;;;;;;;73.22;27.55;;;;;;;1.25;100.00;101969.56;4965388;28;20043;-71
2021/01/10 00:12:35;;;;;;;67.18;25.25;;;;;;;1.24;100.00;101968.69;4964194;28;20035;-71
2021/01/10 00:15:00;;;;;;;73.53;26.08;;;;;;;1.25;100.00;101975.75;4968256;28;20256;-71
2021/01/10 00:17:27;;;;;;;69.00;26.67;;;;;;;1.23;100.00;101971.38;4968268;28;20045;-71
2021/01/10 00:19:52;;;;;;;73.03;26.33;;;;;;;1.27;100.00;101973.97;4962447;28;20047;-71
2021/01/10 00:22:19;;;;;;;63.75;24.20;;;;;;;1.32;100.00;101972.19;4965419;28;20045;-71
2021/01/10 00:24:46;;;;;;;59.05;24.88;;;;;;;1.41;100.00;101966.84;4967455;28;20526;-71
2021/01/10 00:27:13;;;;;;;58.40;23.40;;;;;;;1.40;100.00;101974.78;4967246;28;20058;-71
2021/01/10 00:29:41;;;;;;;57.25;22.58;;;;;;;1.43;100.00;101975.63;4962578;28;20053;-71
2021/01/10 00:32:07;;;;;;;50.75;23.38;;;;;;;1.31;100.00;101980.13;4945744;28;20031;-71
2021/01/10 00:34:32;;;;;;;59.08;23.75;;;;;;;1.34;100.00;101965.13;4964602;28;20027;-71
2021/01/10 00:36:58;;;;;;;53.97;23.42;;;;;;;1.30;100.00;101968.66;4967773;28;20430;-71
2021/01/10 00:39:24;;;;;;;56.65;24.92;;;;;;;1.36;100.00;101968.63;4969446;28;20031;-71
2021/01/10 00:41:50;;;;;;;55.97;24.42;;;;;;;1.34;100.00;101969.53;4969942;28;20427;-71
2021/01/10 00:44:16;;;;;;;58.30;24.15;;;;;;;1.27;100.00;101958.13;4968176;28;20034;-71
2021/01/10 00:46:41;;;;;;;52.30;23.75;;;;;;;1.13;100.00;101966.13;4968162;28;20046;-71
2021/01/10 00:49:07;;;;;;;55.03;24.27;;;;;;;1.11;100.00;101977.63;4964040;28;20042;-70
2021/01/10 00:51:32;;;;;;;57.55;22.50;;;;;;;1.15;100.00;101968.78;4966392;28;20125;-71
2021/01/10 00:53:58;;;;;;;56.90;23.73;;;;;;;1.14;100.00;101977.59;4966512;28;20442;-71
2021/01/10 00:56:24;;;;;;;52.22;22.83;;;;;;;1.18;100.00;101974.91;4969165;28;20035;-71
2021/01/10 00:58:49;;;;;;;53.53;23.05;;;;;;;1.20;100.00;101974.91;4961366;28;20041;-71
2021/01/10 01:01:15;;;;;;;56.30;24.40;;;;;;;1.18;100.00;101974.91;4965857;28;20125;-71
2021/01/10 01:03:41;;;;;;;53.22;23.02;;;;;;;1.18;100.00;101974.03;4970842;28;20042;-71
2021/01/10 01:06:11;;;;;;;47.67;22.17;;;;;;;1.18;100.00;101974.03;4964861;28;20444;-71
2021/01/10 01:08:37;;;;;;;56.85;23.83;;;;;;;1.15;100.00;101971.41;4962505;28;20133;-71
2021/01/10 01:11:05;;;;;;;61.92;24.20;;;;;;;1.14;100.00;101972.28;4966607;28;20093;-71
2021/01/10 01:13:30;;;;;;;50.38;22.48;;;;;;;1.08;100.00;101978.50;4969442;28;20038;-71
2021/01/10 01:15:55;;;;;;;53.47;23.33;;;;;;;1.11;100.00;101977.63;4968069;28;20471;-71
2021/01/10 01:18:21;;;;;;;54.83;24.85;;;;;;;1.09;100.00;101977.63;4968565;28;20046;-71
2021/01/10 01:20:46;;;;;;;66.05;26.00;;;;;;;1.04;100.00;101982.06;4969265;28;20085;-71
2021/01/10 01:23:12;;;;;;;53.58;23.23;;;;;;;1.24;100.00;101984.56;4961141;28;20483;-71
2021/01/10 01:25:38;;;;;;;53.47;22.85;;;;;;;1.21;100.00;101988.13;4966414;28;20035;-71
2021/01/10 01:28:05;;;;;;;57.53;23.70;;;;;;;1.10;100.00;101987.31;4959671;28;20102;-71
2021/01/10 01:30:30;;;;;;;52.83;22.30;;;;;;;1.10;100.00;101997.00;4964357;28;20497;-71
2021/01/10 01:32:56;;;;;;;58.03;24.38;;;;;;;1.09;100.00;101993.47;4967474;28;20038;-71
2021/01/10 01:35:21;;;;;;;57.40;24.25;;;;;;;1.07;100.00;102002.28;4967198;28;20111;-71
2021/01/10 01:37:47;;;;;;;60.22;25.15;;;;;;;1.17;100.00;101998.75;4969904;28;20034;-71
2021/01/10 01:40:13;;;;;;;61.90;23.60;;;;;;;1.10;100.00;102000.53;4968517;28;20157;-71
2021/01/10 01:42:38;;;;;;;57.58;25.33;;;;;;;1.09;100.00;102005.81;4969745;28;20431;-71
2021/01/10 01:45:06;;;;;;;67.72;25.05;;;;;;;1.17;100.00;101998.75;4965799;28;20101;-71
2021/01/10 01:47:32;;;;;;;51.85;22.73;;;;;;;1.12;100.00;102000.50;4965520;28;20466;-71
2021/01/10 01:49:58;;;;;;;58.05;23.83;;;;;;;1.11;100.00;101998.78;4967940;28;20038;-71
2021/01/10 01:52:24;;;;;;;54.78;23.27;;;;;;;1.18;100.00;101995.19;4969302;28;20041;-71
2021/01/10 01:54:50;;;;;;;52.45;23.25;;;;;;;1.12;100.00;101995.22;4958357;28;20031;-71
2021/01/10 01:57:16;;;;;;;61.67;24.05;;;;;;;1.12;100.00;101995.22;4968669;28;20086;-71
2021/01/10 01:59:41;;;;;;;62.05;24.25;;;;;;;1.12;100.00;102000.50;4970256;28;20035;-71
2021/01/10 02:02:07;;;;;;;56.05;23.73;;;;;;;1.11;100.00;102004.91;4969032;28;20038;-71
2021/01/10 02:04:56;;;;;;;58.17;24.08;;;;;;;1.10;100.00;102004.94;4966595;28;20042;-70
2021/01/10 02:07:28;;;;;;;55.88;23.27;;;;;;;1.11;100.00;102004.06;4958001;28;20431;-71
2021/01/10 02:10:05;;;;;;;59.63;24.37;;;;;;;1.10;100.00;101997.88;4967919;28;20034;-71
2021/01/10 02:12:34;;;;;;;55.38;24.23;;;;;;;1.12;100.00;101996.09;4961347;28;20289;-71
2021/01/10 02:15:12;;;;;;;63.22;25.48;;;;;;;1.10;100.00;102002.28;4962143;28;20039;-71
2021/01/10 02:17:41;;;;;;;55.70;24.20;;;;;;;1.10;100.00;102002.28;4968495;28;20035;-71
2021/01/10 02:20:20;;;;;;;57.25;23.30;;;;;;;1.10;100.00;101995.25;4968370;28;20058;-71
2021/01/10 02:22:54;;;;;;;64.22;25.38;;;;;;;1.10;100.00;101991.72;4961870;28;20524;-71
2021/01/10 02:25:21;;;;;;;59.80;23.88;;;;;;;1.10;100.00;101994.38;4960121;28;20041;-71
2021/01/10 02:27:48;;;;;;;61.22;24.23;;;;;;;1.10;100.00;101981.13;4967177;28;20027;-71
2021/01/10 02:30:15;;;;;;;57.15;23.80;;;;;;;1.11;100.00;101982.91;4968630;28;20483;-71
2021/01/10 02:32:45;;;;;;;60.63;25.30;;;;;;;1.09;100.00;101982.03;4964761;28;20768;-71
2021/01/10 02:35:12;;;;;;;55.90;23.17;;;;;;;1.11;100.00;101980.25;4968660;28;20050;-71
2021/01/10 02:37:51;;;;;;;61.35;24.13;;;;;;;1.08;100.00;101974.97;4968978;28;20030;-70
2021/01/10 02:40:45;;;;;;;54.90;22.77;;;;;;;1.03;100.00;101975.00;4967006;28;20038;-71
2021/01/10 02:43:26;;;;;;;55.10;23.13;;;;;;;1.02;100.00;101964.44;4967063;28;20178;-70
2021/01/10 02:45:55;;;;;;;54.58;22.48;;;;;;;1.01;100.00;101976.75;4964681;28;20081;-70
2021/01/10 02:48:22;;;;;;;58.72;23.48;;;;;;;0.97;100.00;101974.16;4967703;28;20038;-70
2021/01/10 02:50:47;;;;;;;60.45;23.80;;;;;;;1.03;100.00;101980.28;4966635;28;20039;-70
2021/01/10 02:53:12;;;;;;;57.88;24.00;;;;;;;0.98;100.00;101983.84;4965013;28;20039;-71
2021/01/10 02:55:38;;;;;;;61.10;24.17;;;;;;;0.90;100.00;101988.28;4964934;28;20030;-71
2021/01/10 02:58:11;;;;;;;63.78;24.23;;;;;;;0.87;100.00;101983.00;4963728;28;20101;-70
2021/01/10 03:00:38;;;;;;;;;;;;;;;0.81;100.00;101982.13;4964130;28;20571;-71
2021/01/10 03:03:05;;;;;;;62.58;24.90;;;;;;;0.77;100.00;101977.75;4964727;28;19918;-71
2021/01/10 03:05:33;;;;;;;64.82;25.75;;;;;;;0.74;100.00;101977.75;4947071;28;20027;-70
2021/01/10 03:07:59;;;;;;;63.88;26.00;;;;;;;0.72;100.00;101979.56;4968602;28;20042;-71
2021/01/10 03:10:25;;;;;;;69.38;26.70;;;;;;;0.67;100.00;101976.06;4964405;28;20039;-71
2021/01/10 03:12:51;;;;;;;63.85;26.30;;;;;;;0.72;100.00;101973.38;4966077;28;20094;-71
2021/01/10 03:15:17;;;;;;;59.03;24.17;;;;;;;0.63;100.00;101968.13;4968979;28;20034;-71
2021/01/10 03:17:48;;;;;;;59.78;23.77;;;;;;;0.60;100.00;101969.03;4966900;28;20046;-70
2021/01/10 03:20:18;;;;;;;55.78;24.23;;;;;;;0.56;100.00;101972.53;4971276;28;20039;-70
2021/01/10 03:22:45;;;;;;;58.35;24.38;;;;;;;0.51;100.00;101963.75;4970031;28;20456;-70
2021/01/10 03:25:13;;;;;;;61.85;24.75;;;;;;;0.51;100.00;101958.47;4972214;28;20415;-71
2021/01/10 03:27:38;;;;;;;59.83;24.75;;;;;;;0.46;100.00;101954.09;4968241;28;20123;-71
2021/01/10 03:30:10;;;;;;;71.22;24.95;;;;;;;0.45;100.00;101952.34;4971493;28;20129;-71
2021/01/10 03:32:36;;;;;;;61.55;25.35;;;;;;;0.42;100.00;101958.53;4970606;28;20043;-71
2021/01/10 03:35:04;;;;;;;64.07;24.67;;;;;;;0.38;100.00;101947.06;4970310;28;20042;-70
2021/01/10 03:37:30;;;;;;;57.63;25.08;;;;;;;0.37;100.00;101940.03;4970012;28;20047;-70
2021/01/10 03:39:55;;;;;;;66.05;24.85;;;;;;;0.32;100.00;101943.56;4970204;28;20788;-71
2021/01/10 03:42:21;;;;;;;58.33;24.02;;;;;;;0.32;100.00;101940.91;4964863;28;20031;-70
2021/01/10 03:44:47;;;;;;;59.05;23.88;;;;;;;0.28;100.00;101944.47;4970152;28;20692;-70
2021/01/10 03:47:13;;;;;;;63.95;25.50;;;;;;;0.28;100.00;101937.44;4969019;28;20100;-70
2021/01/10 03:49:38;;;;;;;58.38;24.70;;;;;;;0.23;100.00;101941.84;4968735;28;20407;-70
2021/01/10 03:52:03;;;;;;;53.13;23.90;;;;;;;0.20;100.00;101940.97;4970956;28;20049;-71
2021/01/10 03:54:29;;;;;;;57.45;23.67;;;;;;;0.21;100.00;101948.00;4966750;28;20437;-70
2021/01/10 03:56:54;;;;;;;66.53;23.67;;;;;;;0.16;100.00;101947.13;4968640;28;20170;-70
2021/01/10 03:59:20;;;;;;;66.32;27.50;;;;;;;0.17;100.00;101941.88;4971575;28;20047;-71
2021/01/10 04:01:45;;;;;;;66.13;26.15;;;;;;;0.13;100.00;101948.00;4970214;28;20039;-70
2021/01/10 04:04:10;;;;;;;59.03;23.27;;;;;;;0.11;100.00;101946.28;4970310;28;20035;-71
2021/01/10 04:06:36;;;;;;;61.00;23.20;;;;;;;0.08;100.00;101954.19;4971224;28;20045;-71
2021/01/10 04:09:01;;;;;;;59.15;24.55;;;;;;;0.05;100.00;101946.28;4967924;28;20102;-70
2021/01/10 04:11:27;;;;;;;59.67;24.38;;;;;;;0.02;100.00;101944.50;4969359;28;20841;-70
2021/01/10 04:13:53;;;;;;;63.53;26.52;;;;;;;0.00;100.00;101948.94;4969256;28;20117;-70
2021/01/10 04:16:18;;;;;;;62.92;24.58;;;;;;;-0.02;100.00;101946.28;4970751;28;20069;-70
2021/01/10 04:18:43;;;;;;;60.50;24.63;;;;;;;-0.04;100.00;101942.78;4970704;28;20035;-70
2021/01/10 04:21:09;;;;;;;64.18;24.90;;;;;;;-0.04;100.00;101941.88;4971399;28;20169;-70
2021/01/10 04:23:34;;;;;;;65.07;25.42;;;;;;;-0.07;100.00;101939.28;4963020;28;20061;-70
2021/01/10 04:26:00;;;;;;;77.63;26.98;;;;;;;-0.11;100.00;101935.72;4964429;28;20194;-70
2021/01/10 04:28:26;;;;;;;59.80;23.77;;;;;;;-0.03;100.00;101927.81;4968862;28;20436;-70
2021/01/10 04:30:52;;;;;;;63.50;24.95;;;;;;;-0.14;100.00;101935.75;4966021;28;20088;-70
2021/01/10 04:33:17;;;;;;;66.70;24.60;;;;;;;-0.17;100.00;101943.66;4969184;28;20043;-69
2021/01/10 04:35:42;;;;;;;66.32;25.00;;;;;;;-0.18;100.00;101944.53;4971363;28;20023;-70
2021/01/10 04:38:08;;;;;;;65.97;25.63;;;;;;;-0.19;100.00;101942.81;4962617;28;20031;-70
2021/01/10 04:40:33;;;;;;;65.75;25.27;;;;;;;-0.22;100.00;101937.50;4968676;28;20499;-70
2021/01/10 04:42:59;;;;;;;75.95;26.60;;;;;;;-0.22;100.00;101941.91;4969584;28;20042;-70
2021/01/10 04:45:25;;;;;;;63.70;25.27;;;;;;;-0.25;100.00;101937.53;4970739;28;20403;-70
2021/01/10 04:47:50;;;;;;;65.88;25.77;;;;;;;-0.25;100.00;101947.19;4965029;28;20039;-70
2021/01/10 04:50:17;;;;;;;66.03;25.55;;;;;;;-0.28;100.00;101936.63;4970680;28;20050;-70
2021/01/10 04:52:44;;;;;;;66.88;26.30;;;;;;;-0.29;100.00;101935.75;4969879;28;20041;-70
2021/01/10 04:55:10;;;;;;;61.33;24.10;;;;;;;-0.30;100.00;101943.66;4962610;28;20034;-70
2021/01/10 04:57:35;;;;;;;58.42;24.52;;;;;;;-0.32;100.00;101941.03;4969474;28;20039;-70
2021/01/10 05:00:07;;;;;;;74.68;25.08;;;;;;;-0.33;100.00;101941.91;4969154;28;20041;-70
2021/01/10 05:02:38;;;;;;;68.50;26.75;;;;;;;-0.31;100.00;101941.94;4966947;28;20271;-70
2021/01/10 05:05:04;;;;;;;72.40;26.30;;;;;;;-0.32;100.00;101951.59;4970931;28;20566;-70
2021/01/10 05:07:34;;;;;;;71.28;26.10;;;;;;;-0.32;100.00;101946.31;4968664;28;20129;-70
2021/01/10 05:09:59;;;;;;;68.20;25.80;;;;;;;-0.27;100.00;101949.84;4967372;28;20717;-70
2021/01/10 05:12:25;;;;;;;68.10;26.92;;;;;;;-0.30;100.00;101944.53;4968323;28;20062;-70
2021/01/10 05:14:50;;;;;;;70.38;26.98;;;;;;;-0.29;100.00;101951.59;4965379;28;20039;-70
2021/01/10 05:17:21;;;;;;;65.93;26.08;;;;;;;-0.21;100.00;101954.22;4968895;28;20073;-70
2021/01/10 05:19:48;;;;;;;71.63;25.48;;;;;;;-0.25;100.00;101953.38;4969788;28;20038;-70
2021/01/10 05:22:15;;;;;;;68.38;26.38;;;;;;;-0.28;100.00;101950.72;4965040;28;20054;-70
2021/01/10 05:24:44;;;;;;;66.55;26.20;;;;;;;-0.21;100.00;101955.09;4966732;28;20072;-70
2021/01/10 05:27:09;;;;;;;66.22;26.30;;;;;;;-0.22;100.00;101958.63;4968295;28;20077;-70
2021/01/10 05:29:35;;;;;;;70.65;26.98;;;;;;;-0.24;100.00;101951.56;4969148;28;20062;-70
2021/01/10 05:32:02;;;;;;;73.55;26.52;;;;;;;-0.26;100.00;101948.06;4967911;28;20034;-70
2021/01/10 05:34:27;;;;;;;66.05;26.02;;;;;;;-0.28;100.00;101948.06;4949802;28;20039;-70
2021/01/10 05:36:56;;;;;;;60.97;24.48;;;;;;;-0.27;100.00;101960.38;4968507;28;20062;-70
2021/01/10 05:39:29;;;;;;;71.13;25.80;;;;;;;-0.29;100.00;101956.84;4967744;28;20125;-70
2021/01/10 05:41:57;;;;;;;56.30;23.08;;;;;;;-0.29;100.00;101959.50;4964466;28;20537;-70
2021/01/10 05:44:30;;;;;;;62.47;23.67;;;;;;;-0.30;100.00;101949.81;4969700;28;20038;-70
2021/01/10 05:47:05;;;;;;;70.47;24.83;;;;;;;-0.28;100.00;101950.72;4966560;28;20510;-70
2021/01/10 05:49:31;;;;;;;58.17;25.52;;;;;;;-0.23;100.00;101950.69;4967243;28;20030;-70
2021/01/10 05:52:06;;;;;;;63.15;25.02;;;;;;;-0.28;100.00;101950.72;4964722;28;20116;-70
2021/01/10 05:54:35;;;;;;;61.17;25.55;;;;;;;-0.25;100.00;101948.09;4960085;28;20138;-70
2021/01/10 05:57:11;;;;;;;53.72;25.00;;;;;;;-0.18;100.00;101949.81;4969546;28;20081;-70
2021/01/10 05:59:57;;;;;;;63.72;25.45;;;;;;;-0.29;100.00;101946.31;4969732;28;20117;-70
2021/01/10 06:02:30;;;;;;;58.22;23.77;;;;;;;-0.31;100.00;101942.81;4966235;28;20146;-70
2021/01/10 06:05:14;;;;;;;55.25;23.10;;;;;;;-0.31;100.00;101952.47;4957828;28;20097;-70
2021/01/10 06:07:41;;;;;;;65.88;24.05;;;;;;;-0.32;100.00;101956.00;4959368;28;20039;-70
2021/01/10 06:10:08;;;;;;;58.03;23.60;;;;;;;-0.33;100.00;101946.31;4961160;28;20494;-70
2021/01/10 06:12:34;;;;;;;53.85;24.35;;;;;;;-0.34;100.00;101948.06;4968158;28;20034;-70
2021/01/10 06:15:12;;;;;;;59.88;23.25;;;;;;;-0.13;100.00;101950.72;4969103;28;20373;-70
2021/01/10 06:17:45;;;;;;;61.63;24.20;;;;;;;-0.16;100.00;101953.34;4966782;28;20079;-70
2021/01/10 06:20:23;;;;;;;;;;;;;;;-0.25;100.00;101952.47;4965797;28;20843;-70
2021/01/10 06:22:50;;;;;;;55.60;22.45;;;;;;;-0.31;100.00;101948.09;4966234;28;19922;-70
2021/01/10 06:25:20;;;;;;;58.42;24.83;;;;;;;-0.25;100.00;101950.72;4964480;28;20035;-70
2021/01/10 06:27:51;;;;;;;58.78;24.55;;;;;;;-0.22;100.00;101957.75;4967958;28;20516;-70
2021/01/10 06:30:22;;;;;;;66.38;25.80;;;;;;;-0.25;100.00;101955.13;4965930;28;20117;-70
2021/01/10 06:32:53;;;;;;;62.15;25.30;;;;;;;-0.25;100.00;101948.09;4966340;28;20121;-70
2021/01/10 06:35:22;;;;;;;62.95;24.05;;;;;;;-0.28;100.00;101955.97;4962523;28;20034;-70
2021/01/10 06:37:51;;;;;;;61.10;24.40;;;;;;;-0.28;100.00;101955.97;4966338;28;20042;-70
2021/01/10 06:40:19;;;;;;;58.20;24.02;;;;;;;-0.21;100.00;101957.75;4967758;28;20100;-70
2021/01/10 06:42:52;;;;;;;57.20;23.08;;;;;;;-0.26;100.00;101961.28;4967481;28;20039;-70
2021/01/10 06:45:19;;;;;;;60.80;25.25;;;;;;;-0.29;100.00;101956.84;4968871;28;20038;-70
2021/01/10 06:47:52;;;;;;;67.03;25.52;;;;;;;-0.21;100.00;101954.22;4967945;28;20035;-70
2021/01/10 06:50:19;;;;;;;67.20;25.90;;;;;;;-0.22;100.00;101963.91;4969210;28;20034;-70
2021/01/10 06:52:45;;;;;;;69.05;26.45;;;;;;;-0.23;100.00;101964.78;4967254;28;20042;-70
2021/01/10 06:55:10;;;;;;;72.72;28.80;;;;;;;-0.23;100.00;101956.84;4959013;28;20026;-70
2021/01/10 06:57:36;;;;;;;68.35;26.23;;;;;;;-0.25;100.00;101961.28;4966051;28;20515;-70
2021/01/10 07:00:09;;;;;;;72.32;28.08;;;;;;;-0.24;100.00;101960.38;4967458;28;20402;-70
2021/01/10 07:03:10;;;;;;;70.10;27.50;;;;;;;-0.24;100.00;101959.50;4965438;28;20175;-70
2021/01/10 07:06:06;;;;;;;67.72;27.92;;;;;;;-0.15;100.00;101973.56;4967854;28;20134;-70
2021/01/10 07:08:52;;;;;;;63.60;27.13;;;;;;;-0.16;100.00;101963.91;4962986;28;20066;-70
2021/01/10 07:11:21;;;;;;;70.93;26.95;;;;;;;-0.05;100.00;101954.19;4960731;28;20038;-70
2021/01/10 07:13:56;;;;;;;69.55;29.35;;;;;;;-0.17;100.00;101959.50;4967497;28;20050;-70
2021/01/10 07:16:25;;;;;;;70.30;29.13;;;;;;;-0.18;100.00;101963.00;4967542;28;20450;-70
2021/01/10 07:18:55;;;;;;;73.32;28.48;;;;;;;-0.17;100.00;101966.53;4968194;28;20053;-70
2021/01/10 07:21:39;;;;;;;74.22;28.15;;;;;;;-0.15;100.00;101968.28;4965318;28;20117;-70
2021/01/10 07:24:19;;;;;;;62.25;24.13;;;;;;;-0.12;100.00;101976.19;4963233;28;20046;-70
2021/01/10 07:26:56;;;;;;;61.67;25.35;;;;;;;-0.15;100.00;101976.22;4968546;28;20063;-70
2021/01/10 07:29:32;;;;;;;63.20;27.48;;;;;;;-0.13;100.00;101987.66;4966260;28;20034;-72
2021/01/10 07:32:10;;;;;;;72.80;27.55;;;;;;;-0.15;100.00;101981.50;4964504;28;20046;-71
2021/01/10 07:34:44;;;;;;;69.15;26.77;;;;;;;-0.16;100.00;101981.47;4966840;28;20101;-70
2021/01/10 07:37:16;;;;;;;74.63;27.30;;;;;;;-0.19;100.00;101974.47;4946165;28;20034;-70
2021/01/10 07:39:51;;;;;;;75.80;29.27;;;;;;;-0.19;100.00;101974.47;4966866;28;20066;-70
2021/01/10 07:42:19;;;;;;;69.75;28.20;;;;;;;-0.19;100.00;101968.31;4967299;28;20085;-70
2021/01/10 07:45:16;;;;;;;72.10;28.50;;;;;;;-0.17;100.00;101972.69;4969229;28;20042;-70
2021/01/10 07:47:44;;;;;;;71.70;28.40;;;;;;;-0.13;100.00;101969.19;4967871;28;20053;-70
2021/01/10 07:50:15;;;;;;;68.50;28.10;;;;;;;-0.11;100.00;101982.34;4968211;28;20061;-70
2021/01/10 07:52:41;;;;;;;68.07;28.85;;;;;;;-0.12;100.00;101980.59;4967589;28;20978;-70
2021/01/10 07:55:18;;;;;;;68.72;28.63;;;;;;;-0.10;100.00;101990.28;4968164;28;20042;-70
2021/01/10 07:57:47;;;;;;;72.00;29.75;;;;;;;-0.09;100.00;101983.25;4966425;28;20042;-70
2021/01/10 08:00:21;;;;;;;89.65;39.75;;;;;;;-0.06;100.00;101986.75;4963902;28;20031;-70
2021/01/10 08:03:10;;;;;;;79.55;34.35;;;;;;;-0.06;100.00;101985.88;4966241;28;20034;-71
2021/01/10 08:05:42;;;;;;;81.90;35.00;;;;;;;-0.01;100.00;101990.28;4965576;28;20102;-70
2021/01/10 08:08:13;;;;;;;73.22;32.90;;;;;;;0.00;100.00;101992.03;4970061;28;20055;-70
2021/01/10 08:10:50;;;;;;;79.82;30.45;;;;;;;0.03;100.00;101990.28;4967195;28;20035;-70
2021/01/10 08:13:30;;;;;;;75.88;30.20;;;;;;;-0.01;100.00;101990.28;4964302;28;20081;-70
2021/01/10 08:16:10;;;;;;;70.93;28.05;;;;;;;0.00;100.00;101992.03;4967015;28;20034;-70
2021/01/10 08:18:40;;;;;;;89.28;32.92;;;;;;;0.07;100.00;101987.63;4969646;28;20068;-70
2021/01/10 08:21:08;;;;;;;79.13;29.73;;;;;;;0.06;100.00;101995.56;4968578;28;20121;-70
2021/01/10 08:23:35;;;;;;;72.63;29.85;;;;;;;0.06;100.00;101982.38;4968663;28;20034;-70
2021/01/10 08:26:10;;;;;;;73.78;30.17;;;;;;;0.10;100.00;101989.38;4970177;28;20066;-70
2021/01/10 08:28:40;;;;;;;83.85;32.58;;;;;;;0.25;100.00;101995.50;4969421;28;20118;-70
2021/01/10 08:31:09;;;;;;;84.25;32.22;;;;;;;0.27;100.00;101987.59;4965693;28;20038;-70
2021/01/10 08:33:34;;;;;;;73.15;30.50;;;;;;;0.35;100.00;101993.75;4970029;28;20509;-70
2021/01/10 08:36:13;;;;;;;83.15;32.47;;;;;;;0.29;100.00;101993.75;4963910;28;20031;-70
2021/01/10 08:38:50;;;;;;;74.85;30.15;;;;;;;0.28;100.00;102010.47;4970322;28;20027;-70
2021/01/10 08:41:24;;;;;;;82.15;32.92;;;;;;;0.24;100.00;102003.47;4971003;28;20117;-70
2021/01/10 08:43:52;;;;;;;84.13;32.15;;;;;;;0.25;100.00;102007.84;4973177;28;20046;-70
2021/01/10 08:46:18;;;;;;;75.75;32.10;;;;;;;0.27;100.00;102001.69;4969712;28;20150;-70
2021/01/10 08:48:43;;;;;;;81.90;32.50;;;;;;;0.26;100.00;101999.03;4966590;28;20125;-70
2021/01/10 08:51:10;;;;;;;80.20;31.85;;;;;;;0.30;100.00;102003.44;4968796;28;20504;-70
2021/01/10 08:53:41;;;;;;;81.63;33.05;;;;;;;0.43;100.00;101999.91;4970343;28;20042;-70
2021/01/10 08:56:13;;;;;;;92.55;38.63;;;;;;;0.48;100.00;102006.06;4971026;28;20463;-70
2021/01/10 08:58:41;;;;;;;90.15;34.33;;;;;;;0.43;100.00;102017.50;4969765;28;20043;-70
2021/01/10 09:01:08;;;;;;;78.43;33.95;;;;;;;0.45;100.00;102010.44;4970597;28;20166;-70
2021/01/10 09:03:33;;;;;;;88.97;35.20;;;;;;;0.45;100.00;102005.16;4968258;28;20043;-70
2021/01/10 09:06:00;;;;;;;79.90;35.72;;;;;;;0.47;100.00;101996.38;4968246;28;20035;-70
2021/01/10 09:08:40;;;;;;;88.43;34.05;;;;;;;0.49;100.00;102005.19;4968217;28;20441;-70
2021/01/10 09:11:20;;;;;;;77.07;33.80;;;;;;;0.54;100.00;102006.03;4968692;28;20506;-70
2021/01/10 09:13:50;;;;;;;85.15;33.58;;;;;;;0.65;100.00;101995.44;4970468;28;20027;-70
2021/01/10 09:16:17;;;;;;;81.05;34.72;;;;;;;0.62;100.00;101998.06;4962939;28;20034;-70
2021/01/10 09:18:47;;;;;;;82.20;34.25;;;;;;;0.74;100.00;102005.97;4969141;28;20034;-70
2021/01/10 09:21:14;;;;;;;80.80;34.35;;;;;;;0.69;100.00;102011.25;4963874;28;20402;-70
2021/01/10 09:23:50;;;;;;;79.78;33.35;;;;;;;0.69;100.00;102011.25;4964866;28;20027;-70
2021/01/10 09:26:30;;;;;;;75.90;32.25;;;;;;;0.74;100.00;102006.81;4970487;28;20074;-70
2021/01/10 09:29:00;;;;;;;80.40;32.55;;;;;;;0.85;100.00;102011.22;4968134;28;20046;-70
2021/01/10 09:31:48;;;;;;;77.25;32.00;;;;;;;0.89;100.00;102008.53;4967005;28;20038;-70
2021/01/10 09:34:15;;;;;;;99.72;42.13;;;;;;;0.85;100.00;102017.38;4966097;28;20034;-70
2021/01/10 09:36:40;;;;;;;80.93;35.28;;;;;;;0.87;100.00;102012.06;4969228;28;20038;-70
2021/01/10 09:39:07;;;;;;;82.97;35.97;;;;;;;0.88;100.00;102021.75;4967361;28;20034;-70
2021/01/10 09:41:53;;;;;;;76.60;34.10;;;;;;;1.11;100.00;102033.16;4969412;28;20042;-70
2021/01/10 09:44:19;;;;;;;85.85;37.20;;;;;;;1.09;100.00;102027.84;4970439;28;20105;-70
2021/01/10 09:46:55;;;;;;;88.00;34.45;;;;;;;1.07;100.00;102026.09;4967260;28;20034;-70
2021/01/10 09:49:25;;;;;;;71.07;31.77;;;;;;;1.06;100.00;102021.69;4962811;28;20035;-71
2021/01/10 09:51:58;;;;;;;84.43;36.15;;;;;;;1.02;100.00;102023.47;4968784;28;20365;-70
2021/01/10 09:54:26;;;;;;;85.13;34.97;;;;;;;1.10;100.00;102029.63;4969839;28;20042;-70
2021/01/10 09:56:52;;;;;;;83.50;38.38;;;;;;;1.06;100.00;102021.69;4970616;28;20035;-70
2021/01/10 09:59:42;;;;;;;76.55;33.85;;;;;;;1.10;100.00;102023.44;4963769;28;20069;-70
2021/01/10 10:02:16;;;;;;;76.05;33.10;;;;;;;1.05;100.00;102019.94;4965911;28;20399;-70
2021/01/10 10:04:46;;;;;;;91.68;40.33;;;;;;;1.17;100.00;102020.75;4970147;28;20047;-70
2021/01/10 10:07:34;;;;;;;73.07;33.35;;;;;;;1.14;100.00;102014.59;4970688;28;20322;-70
2021/01/10 10:10:01;;;;;;;75.32;32.17;;;;;;;1.13;100.00;102018.13;4963953;28;20031;-70
2021/01/10 10:12:28;;;;;;;75.25;32.83;;;;;;;1.15;100.00;102016.38;4967881;28;20491;-70
2021/01/10 10:14:59;;;;;;;76.32;33.33;;;;;;;1.18;100.00;102017.22;4968024;28;20026;-70
2021/01/10 10:17:30;;;;;;;78.53;33.75;;;;;;;1.23;100.00;102012.78;4970014;28;20039;-70
2021/01/10 10:19:56;;;;;;;87.10;35.22;;;;;;;1.36;100.00;102024.16;4968516;28;20030;-70
2021/01/10 10:22:28;;;;;;;81.22;34.95;;;;;;;1.45;100.00;102024.13;4970752;28;20038;-70
2021/01/10 10:24:54;;;;;;;77.07;34.20;;;;;;;1.42;100.00;102016.19;4966262;28;20440;-70
2021/01/10 10:27:20;;;;;;;85.38;38.08;;;;;;;1.51;100.00;102018.81;4970947;28;20523;-70
2021/01/10 10:29:45;;;;;;;79.53;36.13;;;;;;;1.47;100.00;102018.84;4970471;28;20094;-70
2021/01/10 10:32:11;;;;;;;77.20;33.97;;;;;;;1.60;100.00;102016.06;4970283;28;20043;-70
2021/01/10 10:34:37;;;;;;;77.05;33.05;;;;;;;1.80;100.00;102012.41;4969310;28;20034;-70
2021/01/10 10:37:07;;;;;;;72.65;31.88;;;;;;;1.78;100.00;102017.75;4979075;28;20037;-70
2021/01/10 10:39:36;;;;;;;76.97;34.45;;;;;;;1.73;100.00;102010.72;4969548;28;20034;-70
2021/01/10 10:42:02;;;;;;;79.53;35.50;;;;;;;1.74;100.00;102010.69;4966237;28;20042;-70
2021/01/10 10:44:28;;;;;;;83.18;35.85;;;;;;;1.78;100.00;102014.22;4970223;28;20039;-70
2021/01/10 10:46:53;;;;;;;75.53;34.85;;;;;;;1.92;100.00;102009.66;4978107;28;20510;-70
2021/01/10 10:49:19;;;;;;;71.85;34.10;;;;;;;1.93;100.00;102014.97;4964609;28;20039;-70
2021/01/10 10:51:44;;;;;;;74.10;32.75;;;;;;;1.97;100.00;102010.53;4966006;28;20491;-70
2021/01/10 10:54:11;;;;;;;83.50;35.42;;;;;;;1.97;100.00;102006.13;4962521;28;20043;-70
2021/01/10 10:56:41;;;;;;;76.32;34.70;;;;;;;2.09;100.00;102013.06;4966461;28;20026;-71
2021/01/10 10:59:07;;;;;;;82.95;36.17;;;;;;;2.13;100.00;102011.25;4973850;28;21953;-70
2021/01/10 11:01:51;;;;;;;77.82;35.38;;;;;;;2.13;100.00;102006.84;4967478;28;20062;-70
2021/01/10 11:04:16;;;;;;;77.70;35.20;;;;;;;2.17;100.00;102005.91;4976807;28;20045;-70
2021/01/10 11:06:42;;;;;;;78.15;35.00;;;;;;;2.21;100.00;101994.41;4969634;28;20046;-70
2021/01/10 11:09:10;;;;;;;78.45;34.17;;;;;;;2.30;100.00;101989.00;4967961;28;20039;-70
2021/01/10 11:11:36;;;;;;;88.57;38.08;;;;;;;2.34;100.00;101996.06;4968874;28;20034;-70
2021/01/10 11:14:02;;;;;;;161.02;53.35;;;;;;;2.41;100.00;101987.13;4968279;28;20053;-70
2021/01/10 11:16:30;;;;;;;265.42;77.80;;;;;;;2.50;100.00;101991.47;4966388;28;20042;-71